sensor_id;sensor_type;location;lat;lon;timestamp;temperature;humidity
18805;DHT22;9530;48.930;9.526;2022-11-20T00:02:09;5.90;99.90
18805;DHT22;9530;48.930;9.526;2022-11-20T00:04:37;5.90;99.90
18805;DHT22;9530;48.930;9.526;2022-11-20T00:07:04;5.80;99.90
18805;DHT22;9530;48.930;9.526;2022-11-20T00:09:31;5.80;99.90
18805;DHT22;9530;48.930;9.526;2022-11-20T00:11:58;5.80;99.90
18805;DHT22;9530;48.930;9.526;2022-11-20T00:14:24;5.80;99.90
18805;DHT22;9530;48.930;9.526;2022-11-20T00:16:51;5.80;99.90
18805;DHT22;9530;48.930;9.526;2022-11-20T00:19:18;5.70;99.90
18805;DHT22;9530;48.930;9.526;2022-11-20T00:21:46;5.80;99.90
18805;DHT22;9530;48.930;9.526;2022-11-20T00:24:13;5.80;99.90
18805;DHT22;9530;48.930;9.526;2022-11-20T00:26:40;5.80;99.90
18805;DHT22;9530;48.930;9.526;2022-11-20T00:29:09;5.90;99.90
18805;DHT22;9530;48.930;9.526;2022-11-20T00:31:36;5.80;99.90
18805;DHT22;9530;48.930;9.526;2022-11-20T00:34:02;5.90;99.90
18805;DHT22;9530;48.930;9.526;2022-11-20T00:36:33;5.90;99.90
18805;DHT22;9530;48.930;9.526;2022-11-20T00:39:01;5.90;99.90
18805;DHT22;9530;48.930;9.526;2022-11-20T00:41:29;5.90;99.90
18805;DHT22;9530;48.930;9.526;2022-11-20T00:43:56;5.80;99.90
18805;DHT22;9530;48.930;9.526;2022-11-20T00:46:25;5.80;99.90
18805;DHT22;9530;48.930;9.526;2022-11-20T00:48:52;5.80;99.90
18805;DHT22;9530;48.930;9.526;2022-11-20T00:51:20;5.80;99.90
18805;DHT22;9530;48.930;9.526;2022-11-20T00:53:47;5.80;99.90
18805;DHT22;9530;48.930;9.526;2022-11-20T00:56:17;5.80;99.90
18805;DHT22;9530;48.930;9.526;2022-11-20T00:58:46;5.90;99.90
18805;DHT22;9530;48.930;9.526;2022-11-20T01:01:15;5.90;99.90
18805;DHT22;9530;48.930;9.526;2022-11-20T01:03:43;5.90;99.90
18805;DHT22;9530;48.930;9.526;2022-11-20T01:06:12;5.90;99.90
18805;DHT22;9530;48.930;9.526;2022-11-20T01:08:40;5.90;99.90
18805;DHT22;9530;48.930;9.526;2022-11-20T01:11:09;5.90;99.90
18805;DHT22;9530;48.930;9.526;2022-11-20T01:13:37;5.80;99.90
18805;DHT22;9530;48.930;9.526;2022-11-20T01:16:06;5.80;99.90
18805;DHT22;9530;48.930;9.526;2022-11-20T01:18:33;5.80;99.90
18805;DHT22;9530;48.930;9.526;2022-11-20T01:21:02;5.70;99.90
18805;DHT22;9530;48.930;9.526;2022-11-20T01:23:31;5.70;99.90
18805;DHT22;9530;48.930;9.526;2022-11-20T01:26:00;5.70;99.90
18805;DHT22;9530;48.930;9.526;2022-11-20T01:28:28;5.70;99.90
18805;DHT22;9530;48.930;9.526;2022-11-20T01:30:56;5.80;99.90
18805;DHT22;9530;48.930;9.526;2022-11-20T01:33:23;5.80;99.90
18805;DHT22;9530;48.930;9.526;2022-11-20T01:35:50;5.80;99.90
18805;DHT22;9530;48.930;9.526;2022-11-20T01:38:17;5.90;99.90
18805;DHT22;9530;48.930;9.526;2022-11-20T01:40:45;5.90;99.90
18805;DHT22;9530;48.930;9.526;2022-11-20T01:43:14;5.90;99.90
18805;DHT22;9530;48.930;9.526;2022-11-20T01:46:01;5.80;99.90
18805;DHT22;9530;48.930;9.526;2022-11-20T01:48:33;5.90;99.90
18805;DHT22;9530;48.930;9.526;2022-11-20T01:51:01;5.70;99.90
18805;DHT22;9530;48.930;9.526;2022-11-20T01:53:32;5.80;99.90
18805;DHT22;9530;48.930;9.526;2022-11-20T01:56:00;5.80;99.90
18805;DHT22;9530;48.930;9.526;2022-11-20T01:58:30;5.90;99.90
18805;DHT22;9530;48.930;9.526;2022-11-20T02:01:00;5.90;99.90
18805;DHT22;9530;48.930;9.526;2022-11-20T02:03:27;6.00;99.90
18805;DHT22;9530;48.930;9.526;2022-11-20T02:05:59;5.90;99.90
18805;DHT22;9530;48.930;9.526;2022-11-20T02:08:28;6.00;99.90
18805;DHT22;9530;48.930;9.526;2022-11-20T02:10:55;6.00;99.90
18805;DHT22;9530;48.930;9.526;2022-11-20T02:13:21;6.00;99.90
18805;DHT22;9530;48.930;9.526;2022-11-20T02:16:11;6.00;99.90
18805;DHT22;9530;48.930;9.526;2022-11-20T02:18:39;6.10;99.90
18805;DHT22;9530;48.930;9.526;2022-11-20T02:21:09;6.10;99.90
18805;DHT22;9530;48.930;9.526;2022-11-20T02:23:39;6.10;99.90
18805;DHT22;9530;48.930;9.526;2022-11-20T02:26:10;6.10;99.90
18805;DHT22;9530;48.930;9.526;2022-11-20T02:28:38;6.00;99.90
18805;DHT22;9530;48.930;9.526;2022-11-20T02:31:05;6.10;99.90
18805;DHT22;9530;48.930;9.526;2022-11-20T02:33:33;6.10;99.90
18805;DHT22;9530;48.930;9.526;2022-11-20T02:35:59;6.00;99.90
18805;DHT22;9530;48.930;9.526;2022-11-20T02:38:26;6.00;99.90
18805;DHT22;9530;48.930;9.526;2022-11-20T02:40:53;6.10;99.90
18805;DHT22;9530;48.930;9.526;2022-11-20T02:43:21;6.00;99.90
18805;DHT22;9530;48.930;9.526;2022-11-20T02:45:48;6.00;99.90
18805;DHT22;9530;48.930;9.526;2022-11-20T02:48:15;6.00;99.90
18805;DHT22;9530;48.930;9.526;2022-11-20T02:50:41;6.00;99.90
18805;DHT22;9530;48.930;9.526;2022-11-20T02:53:08;5.90;99.90
18805;DHT22;9530;48.930;9.526;2022-11-20T02:55:35;6.10;99.90
18805;DHT22;9530;48.930;9.526;2022-11-20T02:58:02;6.10;99.90
18805;DHT22;9530;48.930;9.526;2022-11-20T03:00:30;6.20;99.90
18805;DHT22;9530;48.930;9.526;2022-11-20T03:02:57;6.20;99.90
18805;DHT22;9530;48.930;9.526;2022-11-20T03:05:24;6.30;99.90
18805;DHT22;9530;48.930;9.526;2022-11-20T03:07:51;6.30;99.90
18805;DHT22;9530;48.930;9.526;2022-11-20T03:10:17;6.30;99.90
18805;DHT22;9530;48.930;9.526;2022-11-20T03:12:44;6.30;99.90
18805;DHT22;9530;48.930;9.526;2022-11-20T03:15:11;6.40;99.90
18805;DHT22;9530;48.930;9.526;2022-11-20T03:17:39;6.30;99.90
18805;DHT22;9530;48.930;9.526;2022-11-20T03:20:08;6.30;99.90
18805;DHT22;9530;48.930;9.526;2022-11-20T03:22:35;6.20;99.90
18805;DHT22;9530;48.930;9.526;2022-11-20T03:25:02;6.20;99.90
18805;DHT22;9530;48.930;9.526;2022-11-20T03:27:32;6.00;99.90
18805;DHT22;9530;48.930;9.526;2022-11-20T03:29:58;6.00;99.90
18805;DHT22;9530;48.930;9.526;2022-11-20T03:32:25;6.00;99.90
18805;DHT22;9530;48.930;9.526;2022-11-20T03:34:53;6.00;99.90
18805;DHT22;9530;48.930;9.526;2022-11-20T03:37:20;6.00;99.90
18805;DHT22;9530;48.930;9.526;2022-11-20T03:39:46;6.00;99.90
18805;DHT22;9530;48.930;9.526;2022-11-20T03:42:13;6.10;99.90
18805;DHT22;9530;48.930;9.526;2022-11-20T03:44:54;6.10;99.90
18805;DHT22;9530;48.930;9.526;2022-11-20T03:47:21;6.10;99.90
18805;DHT22;9530;48.930;9.526;2022-11-20T03:49:47;6.20;99.90
18805;DHT22;9530;48.930;9.526;2022-11-20T03:52:15;6.20;99.90
18805;DHT22;9530;48.930;9.526;2022-11-20T03:54:42;6.20;99.90
18805;DHT22;9530;48.930;9.526;2022-11-20T03:57:09;6.20;99.90
18805;DHT22;9530;48.930;9.526;2022-11-20T03:59:35;6.30;99.90
18805;DHT22;9530;48.930;9.526;2022-11-20T04:02:02;6.30;99.90
18805;DHT22;9530;48.930;9.526;2022-11-20T04:04:29;6.30;99.90
18805;DHT22;9530;48.930;9.526;2022-11-20T04:06:55;6.30;99.90
18805;DHT22;9530;48.930;9.526;2022-11-20T04:09:24;6.30;99.90
18805;DHT22;9530;48.930;9.526;2022-11-20T04:11:50;6.30;99.90
18805;DHT22;9530;48.930;9.526;2022-11-20T04:14:17;6.20;99.90
18805;DHT22;9530;48.930;9.526;2022-11-20T04:16:44;6.20;99.90
18805;DHT22;9530;48.930;9.526;2022-11-20T04:19:12;6.20;99.90
18805;DHT22;9530;48.930;9.526;2022-11-20T04:21:39;6.20;99.90
18805;DHT22;9530;48.930;9.526;2022-11-20T04:24:07;6.10;99.90
18805;DHT22;9530;48.930;9.526;2022-11-20T04:26:35;6.00;99.90
18805;DHT22;9530;48.930;9.526;2022-11-20T04:29:02;6.10;99.90
18805;DHT22;9530;48.930;9.526;2022-11-20T04:31:32;6.10;99.90
18805;DHT22;9530;48.930;9.526;2022-11-20T04:34:00;6.20;99.90
18805;DHT22;9530;48.930;9.526;2022-11-20T04:36:29;6.30;99.90
18805;DHT22;9530;48.930;9.526;2022-11-20T04:38:57;6.20;99.90
18805;DHT22;9530;48.930;9.526;2022-11-20T04:41:26;6.20;99.90
18805;DHT22;9530;48.930;9.526;2022-11-20T04:43:57;6.30;99.90
18805;DHT22;9530;48.930;9.526;2022-11-20T04:46:28;6.30;99.90
18805;DHT22;9530;48.930;9.526;2022-11-20T04:48:55;6.30;99.90
18805;DHT22;9530;48.930;9.526;2022-11-20T04:51:23;6.20;99.90
18805;DHT22;9530;48.930;9.526;2022-11-20T04:53:50;6.30;99.90
18805;DHT22;9530;48.930;9.526;2022-11-20T04:56:17;6.30;99.90
18805;DHT22;9530;48.930;9.526;2022-11-20T04:58:44;6.30;99.90
18805;DHT22;9530;48.930;9.526;2022-11-20T05:01:13;6.40;99.90
18805;DHT22;9530;48.930;9.526;2022-11-20T05:03:41;6.40;99.90
18805;DHT22;9530;48.930;9.526;2022-11-20T05:06:09;6.40;99.90
18805;DHT22;9530;48.930;9.526;2022-11-20T05:08:36;6.40;99.90
18805;DHT22;9530;48.930;9.526;2022-11-20T05:11:04;6.40;99.90
18805;DHT22;9530;48.930;9.526;2022-11-20T05:13:31;6.40;99.90
18805;DHT22;9530;48.930;9.526;2022-11-20T05:16:01;6.40;99.90
18805;DHT22;9530;48.930;9.526;2022-11-20T05:18:30;6.50;99.90
18805;DHT22;9530;48.930;9.526;2022-11-20T05:20:57;6.40;99.90
18805;DHT22;9530;48.930;9.526;2022-11-20T05:23:24;6.40;99.90
18805;DHT22;9530;48.930;9.526;2022-11-20T05:25:52;6.40;99.90
18805;DHT22;9530;48.930;9.526;2022-11-20T05:28:20;6.40;99.90
18805;DHT22;9530;48.930;9.526;2022-11-20T05:30:47;6.50;99.90
18805;DHT22;9530;48.930;9.526;2022-11-20T05:33:14;6.50;99.90
18805;DHT22;9530;48.930;9.526;2022-11-20T05:35:42;6.40;99.90
18805;DHT22;9530;48.930;9.526;2022-11-20T05:38:09;6.50;99.90
18805;DHT22;9530;48.930;9.526;2022-11-20T05:40:36;6.50;99.90
18805;DHT22;9530;48.930;9.526;2022-11-20T05:43:02;6.50;99.90
18805;DHT22;9530;48.930;9.526;2022-11-20T05:45:29;6.40;99.90
18805;DHT22;9530;48.930;9.526;2022-11-20T05:47:58;6.40;99.90
18805;DHT22;9530;48.930;9.526;2022-11-20T05:50:25;6.50;99.90
18805;DHT22;9530;48.930;9.526;2022-11-20T05:52:53;6.50;99.90
18805;DHT22;9530;48.930;9.526;2022-11-20T05:55:20;6.50;99.90
18805;DHT22;9530;48.930;9.526;2022-11-20T05:57:46;6.50;99.90
18805;DHT22;9530;48.930;9.526;2022-11-20T06:00:14;6.50;99.90
18805;DHT22;9530;48.930;9.526;2022-11-20T06:02:41;6.40;99.90
18805;DHT22;9530;48.930;9.526;2022-11-20T06:05:08;6.50;99.90
18805;DHT22;9530;48.930;9.526;2022-11-20T06:07:35;6.50;99.90
18805;DHT22;9530;48.930;9.526;2022-11-20T06:10:03;6.50;99.90
18805;DHT22;9530;48.930;9.526;2022-11-20T06:12:31;6.50;99.90
18805;DHT22;9530;48.930;9.526;2022-11-20T06:14:58;6.40;99.90
18805;DHT22;9530;48.930;9.526;2022-11-20T06:17:24;6.40;99.90
18805;DHT22;9530;48.930;9.526;2022-11-20T06:19:51;6.40;99.90
18805;DHT22;9530;48.930;9.526;2022-11-20T06:22:18;6.40;99.90
18805;DHT22;9530;48.930;9.526;2022-11-20T06:24:44;6.40;99.90
18805;DHT22;9530;48.930;9.526;2022-11-20T06:27:12;6.40;99.90
18805;DHT22;9530;48.930;9.526;2022-11-20T06:29:39;6.50;99.90
18805;DHT22;9530;48.930;9.526;2022-11-20T06:32:06;6.50;99.90
18805;DHT22;9530;48.930;9.526;2022-11-20T06:34:32;6.50;99.90
18805;DHT22;9530;48.930;9.526;2022-11-20T06:36:59;6.50;99.90
18805;DHT22;9530;48.930;9.526;2022-11-20T06:39:26;6.50;99.90
18805;DHT22;9530;48.930;9.526;2022-11-20T06:41:53;6.50;99.90
18805;DHT22;9530;48.930;9.526;2022-11-20T06:44:21;6.50;99.90
18805;DHT22;9530;48.930;9.526;2022-11-20T06:46:47;6.50;99.90
18805;DHT22;9530;48.930;9.526;2022-11-20T06:49:14;6.50;99.90
18805;DHT22;9530;48.930;9.526;2022-11-20T06:51:41;6.50;99.90
18805;DHT22;9530;48.930;9.526;2022-11-20T06:54:07;6.50;99.90
18805;DHT22;9530;48.930;9.526;2022-11-20T06:56:34;6.50;99.90
18805;DHT22;9530;48.930;9.526;2022-11-20T06:59:04;6.50;99.90
18805;DHT22;9530;48.930;9.526;2022-11-20T07:01:32;6.50;99.90
18805;DHT22;9530;48.930;9.526;2022-11-20T07:04:00;6.50;99.90
18805;DHT22;9530;48.930;9.526;2022-11-20T07:06:27;6.50;99.90
18805;DHT22;9530;48.930;9.526;2022-11-20T07:08:54;6.60;99.90
18805;DHT22;9530;48.930;9.526;2022-11-20T07:11:20;6.50;99.90
18805;DHT22;9530;48.930;9.526;2022-11-20T07:13:47;6.50;99.90
18805;DHT22;9530;48.930;9.526;2022-11-20T07:16:14;6.60;99.90
18805;DHT22;9530;48.930;9.526;2022-11-20T07:18:42;6.60;99.90
18805;DHT22;9530;48.930;9.526;2022-11-20T07:21:10;6.70;99.90
18805;DHT22;9530;48.930;9.526;2022-11-20T07:23:37;6.60;99.90
18805;DHT22;9530;48.930;9.526;2022-11-20T07:26:04;6.60;99.90
18805;DHT22;9530;48.930;9.526;2022-11-20T07:28:31;6.60;99.90
18805;DHT22;9530;48.930;9.526;2022-11-20T07:30:58;6.70;99.90
18805;DHT22;9530;48.930;9.526;2022-11-20T07:33:25;6.60;99.90
18805;DHT22;9530;48.930;9.526;2022-11-20T07:35:53;6.70;99.90
18805;DHT22;9530;48.930;9.526;2022-11-20T07:38:20;6.70;99.90
18805;DHT22;9530;48.930;9.526;2022-11-20T07:40:46;6.80;99.90
18805;DHT22;9530;48.930;9.526;2022-11-20T07:43:14;6.80;99.90
18805;DHT22;9530;48.930;9.526;2022-11-20T07:45:41;6.90;99.90
18805;DHT22;9530;48.930;9.526;2022-11-20T07:48:07;6.90;99.90
18805;DHT22;9530;48.930;9.526;2022-11-20T07:50:34;7.00;99.90
18805;DHT22;9530;48.930;9.526;2022-11-20T07:53:04;7.10;99.90
18805;DHT22;9530;48.930;9.526;2022-11-20T07:55:31;7.00;99.90
18805;DHT22;9530;48.930;9.526;2022-11-20T07:57:58;6.90;99.90
18805;DHT22;9530;48.930;9.526;2022-11-20T08:00:26;6.90;99.90
18805;DHT22;9530;48.930;9.526;2022-11-20T08:02:53;6.90;99.90
18805;DHT22;9530;48.930;9.526;2022-11-20T08:05:19;6.90;99.90
18805;DHT22;9530;48.930;9.526;2022-11-20T08:07:46;6.80;99.90
18805;DHT22;9530;48.930;9.526;2022-11-20T08:10:15;6.80;99.90
18805;DHT22;9530;48.930;9.526;2022-11-20T08:12:46;6.80;99.90
18805;DHT22;9530;48.930;9.526;2022-11-20T08:15:30;6.80;99.90
18805;DHT22;9530;48.930;9.526;2022-11-20T08:18:02;6.70;99.90
18805;DHT22;9530;48.930;9.526;2022-11-20T08:20:29;6.70;99.90
18805;DHT22;9530;48.930;9.526;2022-11-20T08:22:59;6.70;99.90
18805;DHT22;9530;48.930;9.526;2022-11-20T08:25:28;6.70;99.90
18805;DHT22;9530;48.930;9.526;2022-11-20T08:27:57;6.70;99.90
18805;DHT22;9530;48.930;9.526;2022-11-20T08:30:24;6.60;99.90
18805;DHT22;9530;48.930;9.526;2022-11-20T08:32:51;6.70;99.90
18805;DHT22;9530;48.930;9.526;2022-11-20T08:35:17;6.70;99.90
18805;DHT22;9530;48.930;9.526;2022-11-20T08:37:46;6.70;99.90
18805;DHT22;9530;48.930;9.526;2022-11-20T08:40:13;6.70;99.90
18805;DHT22;9530;48.930;9.526;2022-11-20T08:42:47;6.70;99.90
18805;DHT22;9530;48.930;9.526;2022-11-20T08:45:14;6.80;99.90
18805;DHT22;9530;48.930;9.526;2022-11-20T08:47:41;6.80;99.90
18805;DHT22;9530;48.930;9.526;2022-11-20T08:50:08;6.90;99.90
18805;DHT22;9530;48.930;9.526;2022-11-20T08:52:35;6.90;99.90
18805;DHT22;9530;48.930;9.526;2022-11-20T08:55:03;6.90;99.90
18805;DHT22;9530;48.930;9.526;2022-11-20T08:57:32;6.90;99.90
18805;DHT22;9530;48.930;9.526;2022-11-20T09:00:00;6.90;99.90
18805;DHT22;9530;48.930;9.526;2022-11-20T09:02:27;6.70;99.90
18805;DHT22;9530;48.930;9.526;2022-11-20T09:04:54;6.70;99.90
18805;DHT22;9530;48.930;9.526;2022-11-20T09:07:20;6.80;99.90
18805;DHT22;9530;48.930;9.526;2022-11-20T09:09:47;6.80;99.90
18805;DHT22;9530;48.930;9.526;2022-11-20T09:12:14;6.80;99.90
18805;DHT22;9530;48.930;9.526;2022-11-20T09:14:41;6.80;99.90
18805;DHT22;9530;48.930;9.526;2022-11-20T10:04:21;6.30;99.90
18805;DHT22;9530;48.930;9.526;2022-11-20T10:06:55;6.30;99.90
18805;DHT22;9530;48.930;9.526;2022-11-20T10:09:28;6.30;99.90
18805;DHT22;9530;48.930;9.526;2022-11-20T10:12:06;6.30;99.90
18805;DHT22;9530;48.930;9.526;2022-11-20T10:14:46;6.40;99.90
18805;DHT22;9530;48.930;9.526;2022-11-20T10:17:17;6.50;99.90
18805;DHT22;9530;48.930;9.526;2022-11-20T10:19:58;6.70;99.90
18805;DHT22;9530;48.930;9.526;2022-11-20T10:22:40;6.80;99.90
18805;DHT22;9530;48.930;9.526;2022-11-20T10:25:14;6.90;99.90
18805;DHT22;9530;48.930;9.526;2022-11-20T10:30:42;7.00;99.90
18805;DHT22;9530;48.930;9.526;2022-11-20T10:33:13;7.00;99.90
18805;DHT22;9530;48.930;9.526;2022-11-20T10:35:45;7.00;99.90
18805;DHT22;9530;48.930;9.526;2022-11-20T10:38:20;7.00;99.90
18805;DHT22;9530;48.930;9.526;2022-11-20T10:40:51;7.10;99.90
18805;DHT22;9530;48.930;9.526;2022-11-20T10:43:21;7.00;99.90
18805;DHT22;9530;48.930;9.526;2022-11-20T10:45:55;7.00;99.90
18805;DHT22;9530;48.930;9.526;2022-11-20T10:48:24;7.00;99.90
18805;DHT22;9530;48.930;9.526;2022-11-20T10:51:15;7.10;99.90
18805;DHT22;9530;48.930;9.526;2022-11-20T10:53:56;7.20;99.90
18805;DHT22;9530;48.930;9.526;2022-11-20T10:56:30;7.30;99.90
18805;DHT22;9530;48.930;9.526;2022-11-20T10:59:23;7.40;99.90
18805;DHT22;9530;48.930;9.526;2022-11-20T11:01:52;7.50;99.90
18805;DHT22;9530;48.930;9.526;2022-11-20T11:04:32;7.50;99.90
18805;DHT22;9530;48.930;9.526;2022-11-20T11:07:09;7.60;99.90
18805;DHT22;9530;48.930;9.526;2022-11-20T11:09:41;7.60;99.90
18805;DHT22;9530;48.930;9.526;2022-11-20T11:12:09;7.60;99.90
18805;DHT22;9530;48.930;9.526;2022-11-20T11:14:48;7.60;99.90
18805;DHT22;9530;48.930;9.526;2022-11-20T11:17:23;7.60;99.90
18805;DHT22;9530;48.930;9.526;2022-11-20T11:19:59;7.60;99.90
18805;DHT22;9530;48.930;9.526;2022-11-20T11:22:29;7.50;99.90
18805;DHT22;9530;48.930;9.526;2022-11-20T11:24:56;7.50;99.90
18805;DHT22;9530;48.930;9.526;2022-11-20T11:27:23;7.50;99.90
18805;DHT22;9530;48.930;9.526;2022-11-20T11:29:49;7.50;99.90
18805;DHT22;9530;48.930;9.526;2022-11-20T11:32:27;7.50;99.90
18805;DHT22;9530;48.930;9.526;2022-11-20T11:35:00;7.50;99.90
18805;DHT22;9530;48.930;9.526;2022-11-20T11:37:33;7.50;99.90
18805;DHT22;9530;48.930;9.526;2022-11-20T11:40:00;7.40;99.90
18805;DHT22;9530;48.930;9.526;2022-11-20T11:42:28;7.40;99.90
18805;DHT22;9530;48.930;9.526;2022-11-20T11:44:57;7.40;99.90
18805;DHT22;9530;48.930;9.526;2022-11-20T11:47:35;7.40;99.90
18805;DHT22;9530;48.930;9.526;2022-11-20T11:50:19;7.40;99.90
18805;DHT22;9530;48.930;9.526;2022-11-20T11:52:51;7.50;99.90
18805;DHT22;9530;48.930;9.526;2022-11-20T11:55:27;7.50;99.90
18805;DHT22;9530;48.930;9.526;2022-11-20T11:58:04;7.60;99.90
18805;DHT22;9530;48.930;9.526;2022-11-20T12:00:35;7.60;99.90
18805;DHT22;9530;48.930;9.526;2022-11-20T12:03:09;7.60;99.90
18805;DHT22;9530;48.930;9.526;2022-11-20T12:05:42;7.70;99.90
18805;DHT22;9530;48.930;9.526;2022-11-20T12:08:15;7.80;99.90
18805;DHT22;9530;48.930;9.526;2022-11-20T12:10:47;8.00;99.90
18805;DHT22;9530;48.930;9.526;2022-11-20T12:13:30;8.10;99.90
18805;DHT22;9530;48.930;9.526;2022-11-20T12:15:59;8.30;99.90
18805;DHT22;9530;48.930;9.526;2022-11-20T12:18:27;8.30;99.90
18805;DHT22;9530;48.930;9.526;2022-11-20T12:21:07;8.40;99.90
18805;DHT22;9530;48.930;9.526;2022-11-20T12:23:47;8.40;99.90
18805;DHT22;9530;48.930;9.526;2022-11-20T12:26:22;8.40;99.90
18805;DHT22;9530;48.930;9.526;2022-11-20T12:29:02;8.30;99.90
18805;DHT22;9530;48.930;9.526;2022-11-20T12:31:47;8.30;99.90
18805;DHT22;9530;48.930;9.526;2022-11-20T12:34:24;8.50;99.90
18805;DHT22;9530;48.930;9.526;2022-11-20T12:37:01;8.60;99.90
18805;DHT22;9530;48.930;9.526;2022-11-20T12:39:35;8.80;99.90
18805;DHT22;9530;48.930;9.526;2022-11-20T12:42:24;9.00;99.90
18805;DHT22;9530;48.930;9.526;2022-11-20T12:45:28;8.90;99.90
18805;DHT22;9530;48.930;9.526;2022-11-20T12:48:12;8.90;99.90
18805;DHT22;9530;48.930;9.526;2022-11-20T12:50:51;9.00;99.90
18805;DHT22;9530;48.930;9.526;2022-11-20T12:53:27;8.90;99.90
18805;DHT22;9530;48.930;9.526;2022-11-20T12:56:04;9.10;99.90
18805;DHT22;9530;48.930;9.526;2022-11-20T12:58:36;9.10;99.90
18805;DHT22;9530;48.930;9.526;2022-11-20T13:01:14;9.10;99.90
18805;DHT22;9530;48.930;9.526;2022-11-20T13:04:08;9.10;99.90
18805;DHT22;9530;48.930;9.526;2022-11-20T13:06:36;9.00;99.90
18805;DHT22;9530;48.930;9.526;2022-11-20T13:09:04;9.00;99.90
18805;DHT22;9530;48.930;9.526;2022-11-20T13:11:40;9.00;99.90
18805;DHT22;9530;48.930;9.526;2022-11-20T13:14:14;9.00;99.90
18805;DHT22;9530;48.930;9.526;2022-11-20T13:16:48;8.80;99.90
18805;DHT22;9530;48.930;9.526;2022-11-20T13:19:17;8.70;99.90
18805;DHT22;9530;48.930;9.526;2022-11-20T13:21:45;8.80;99.90
18805;DHT22;9530;48.930;9.526;2022-11-20T13:24:23;8.80;99.90
18805;DHT22;9530;48.930;9.526;2022-11-20T13:27:04;8.80;99.90
18805;DHT22;9530;48.930;9.526;2022-11-20T13:29:32;8.90;99.90
18805;DHT22;9530;48.930;9.526;2022-11-20T13:32:05;8.90;99.90
18805;DHT22;9530;48.930;9.526;2022-11-20T13:34:33;8.90;99.90
18805;DHT22;9530;48.930;9.526;2022-11-20T13:37:00;8.80;99.90
18805;DHT22;9530;48.930;9.526;2022-11-20T13:39:31;8.70;99.90
18805;DHT22;9530;48.930;9.526;2022-11-20T13:41:59;8.70;99.90
18805;DHT22;9530;48.930;9.526;2022-11-20T13:44:30;8.60;99.90
18805;DHT22;9530;48.930;9.526;2022-11-20T13:46:59;8.70;99.90
18805;DHT22;9530;48.930;9.526;2022-11-20T13:49:29;8.80;99.90
18805;DHT22;9530;48.930;9.526;2022-11-20T13:52:20;8.80;99.90
18805;DHT22;9530;48.930;9.526;2022-11-20T13:55:02;8.90;99.90
18805;DHT22;9530;48.930;9.526;2022-11-20T14:00:29;9.00;99.90
18805;DHT22;9530;48.930;9.526;2022-11-20T14:03:06;9.00;99.90
18805;DHT22;9530;48.930;9.526;2022-11-20T14:05:37;9.00;99.90
18805;DHT22;9530;48.930;9.526;2022-11-20T14:08:07;9.10;99.90
18805;DHT22;9530;48.930;9.526;2022-11-20T14:10:37;9.30;99.90
18805;DHT22;9530;48.930;9.526;2022-11-20T14:13:10;9.50;99.90
18805;DHT22;9530;48.930;9.526;2022-11-20T14:15:38;9.50;99.90
18805;DHT22;9530;48.930;9.526;2022-11-20T14:18:12;9.40;99.90
18805;DHT22;9530;48.930;9.526;2022-11-20T14:20:39;9.20;99.90
18805;DHT22;9530;48.930;9.526;2022-11-20T14:23:09;9.10;99.90
18805;DHT22;9530;48.930;9.526;2022-11-20T14:25:37;9.20;99.90
18805;DHT22;9530;48.930;9.526;2022-11-20T14:28:17;9.20;99.90
18805;DHT22;9530;48.930;9.526;2022-11-20T14:30:48;9.20;99.90
18805;DHT22;9530;48.930;9.526;2022-11-20T14:33:16;9.00;99.90
18805;DHT22;9530;48.930;9.526;2022-11-20T14:35:47;8.80;99.90
18805;DHT22;9530;48.930;9.526;2022-11-20T14:38:15;8.80;99.90
18805;DHT22;9530;48.930;9.526;2022-11-20T14:40:43;8.70;99.90
18805;DHT22;9530;48.930;9.526;2022-11-20T14:43:18;8.70;99.90
18805;DHT22;9530;48.930;9.526;2022-11-20T14:45:52;8.70;99.90
18805;DHT22;9530;48.930;9.526;2022-11-20T14:48:23;8.60;99.90
18805;DHT22;9530;48.930;9.526;2022-11-20T14:50:50;8.60;99.90
18805;DHT22;9530;48.930;9.526;2022-11-20T14:53:22;8.50;99.90
18805;DHT22;9530;48.930;9.526;2022-11-20T14:55:55;8.40;99.90
18805;DHT22;9530;48.930;9.526;2022-11-20T14:58:23;8.30;99.90
18805;DHT22;9530;48.930;9.526;2022-11-20T15:00:59;8.30;99.90
18805;DHT22;9530;48.930;9.526;2022-11-20T15:03:31;8.20;99.90
18805;DHT22;9530;48.930;9.526;2022-11-20T15:05:58;8.10;99.90
18805;DHT22;9530;48.930;9.526;2022-11-20T15:08:25;7.90;99.90
18805;DHT22;9530;48.930;9.526;2022-11-20T15:10:53;7.80;99.90
18805;DHT22;9530;48.930;9.526;2022-11-20T15:13:25;7.70;99.90
18805;DHT22;9530;48.930;9.526;2022-11-20T15:15:55;7.60;99.90
18805;DHT22;9530;48.930;9.526;2022-11-20T15:18:23;7.50;99.90
18805;DHT22;9530;48.930;9.526;2022-11-20T15:20:54;7.40;99.90
18805;DHT22;9530;48.930;9.526;2022-11-20T15:23:21;7.30;99.90
18805;DHT22;9530;48.930;9.526;2022-11-20T15:25:48;7.20;99.90
18805;DHT22;9530;48.930;9.526;2022-11-20T15:28:18;7.00;99.90
18805;DHT22;9530;48.930;9.526;2022-11-20T15:30:45;7.00;99.90
18805;DHT22;9530;48.930;9.526;2022-11-20T15:33:14;6.90;99.90
18805;DHT22;9530;48.930;9.526;2022-11-20T15:35:41;6.80;99.90
18805;DHT22;9530;48.930;9.526;2022-11-20T15:38:08;6.70;99.90
18805;DHT22;9530;48.930;9.526;2022-11-20T15:40:35;6.70;99.90
18805;DHT22;9530;48.930;9.526;2022-11-20T15:43:02;6.60;99.90
18805;DHT22;9530;48.930;9.526;2022-11-20T15:45:33;6.50;99.90
18805;DHT22;9530;48.930;9.526;2022-11-20T15:48:01;6.20;99.90
18805;DHT22;9530;48.930;9.526;2022-11-20T15:50:36;6.20;99.90
18805;DHT22;9530;48.930;9.526;2022-11-20T15:53:03;6.20;99.90
18805;DHT22;9530;48.930;9.526;2022-11-20T15:55:30;6.00;99.90
18805;DHT22;9530;48.930;9.526;2022-11-20T15:57:57;5.80;99.90
18805;DHT22;9530;48.930;9.526;2022-11-20T16:00:23;5.70;99.90
18805;DHT22;9530;48.930;9.526;2022-11-20T16:05:17;5.40;99.90
18805;DHT22;9530;48.930;9.526;2022-11-20T16:07:48;5.40;99.90
18805;DHT22;9530;48.930;9.526;2022-11-20T16:10:15;5.30;99.90
18805;DHT22;9530;48.930;9.526;2022-11-20T16:12:42;5.30;99.90
18805;DHT22;9530;48.930;9.526;2022-11-20T16:15:26;5.20;99.90
18805;DHT22;9530;48.930;9.526;2022-11-20T16:18:15;5.30;99.90
18805;DHT22;9530;48.930;9.526;2022-11-20T16:20:42;5.20;99.90
18805;DHT22;9530;48.930;9.526;2022-11-20T16:23:10;5.20;99.90
18805;DHT22;9530;48.930;9.526;2022-11-20T16:25:37;5.20;99.90
18805;DHT22;9530;48.930;9.526;2022-11-20T16:28:04;5.20;99.90
18805;DHT22;9530;48.930;9.526;2022-11-20T16:30:32;5.20;99.90
18805;DHT22;9530;48.930;9.526;2022-11-20T16:32:59;5.20;99.90
18805;DHT22;9530;48.930;9.526;2022-11-20T16:35:26;5.20;99.90
18805;DHT22;9530;48.930;9.526;2022-11-20T16:37:54;5.20;99.90
18805;DHT22;9530;48.930;9.526;2022-11-20T16:40:22;5.30;99.90
18805;DHT22;9530;48.930;9.526;2022-11-20T16:42:49;5.40;99.90
18805;DHT22;9530;48.930;9.526;2022-11-20T16:45:17;5.30;99.90
18805;DHT22;9530;48.930;9.526;2022-11-20T16:47:43;5.40;99.90
18805;DHT22;9530;48.930;9.526;2022-11-20T16:50:10;5.40;99.90
18805;DHT22;9530;48.930;9.526;2022-11-20T16:52:37;5.40;99.90
18805;DHT22;9530;48.930;9.526;2022-11-20T16:55:04;5.50;99.90
18805;DHT22;9530;48.930;9.526;2022-11-20T16:57:33;5.50;99.90
18805;DHT22;9530;48.930;9.526;2022-11-20T17:00:00;5.50;99.90
18805;DHT22;9530;48.930;9.526;2022-11-20T17:02:27;5.60;99.90
18805;DHT22;9530;48.930;9.526;2022-11-20T17:04:53;5.60;99.90
18805;DHT22;9530;48.930;9.526;2022-11-20T17:07:20;5.70;99.90
18805;DHT22;9530;48.930;9.526;2022-11-20T17:09:47;5.80;99.90
18805;DHT22;9530;48.930;9.526;2022-11-20T17:12:14;5.80;99.90
18805;DHT22;9530;48.930;9.526;2022-11-20T17:14:42;5.90;99.90